createdAt,value
2022-12-26T00:01:40.865Z,10.30
2022-12-26T00:04:52.206Z,10.43
2022-12-26T00:06:54.335Z,9.70
2022-12-26T00:09:21.661Z,10.70
2022-12-26T00:11:48.185Z,8.97
2022-12-26T00:14:15.609Z,13.13
2022-12-26T00:16:42.925Z,10.47
2022-12-26T00:19:10.154Z,11.97
2022-12-26T00:21:36.822Z,9.90
2022-12-26T00:24:03.518Z,13.83
2022-12-26T00:26:31.347Z,11.77
2022-12-26T00:28:58.395Z,11.63
2022-12-26T00:31:32.008Z,12.37
2022-12-26T00:33:59.189Z,12.10
2022-12-26T00:36:29.103Z,10.50
2022-12-26T00:38:56.150Z,12.43
2022-12-26T00:41:22.697Z,13.67
2022-12-26T00:43:49.367Z,9.70
2022-12-26T00:46:16.239Z,10.70
2022-12-26T00:48:43.134Z,8.77
2022-12-26T00:51:10.190Z,11.63
2022-12-26T00:53:36.843Z,9.83
2022-12-26T00:56:03.848Z,10.37
2022-12-26T00:58:30.397Z,9.20
2022-12-26T01:01:05.441Z,10.77
2022-12-26T01:03:32.145Z,8.33
2022-12-26T01:05:58.689Z,10.33
2022-12-26T01:08:25.240Z,8.70
2022-12-26T01:10:52.100Z,10.23
2022-12-26T01:13:18.697Z,9.23
2022-12-26T01:15:52.031Z,8.97
2022-12-26T01:18:18.902Z,11.53
2022-12-26T01:20:45.514Z,10.23
2022-12-26T01:23:12.039Z,10.07
2022-12-26T01:26:16.490Z,11.90
2022-12-26T01:28:26.031Z,10.53
2022-12-26T01:30:52.665Z,11.73
2022-12-26T01:33:19.266Z,11.57
2022-12-26T01:35:49.700Z,10.60
2022-12-26T01:38:16.703Z,10.60
2022-12-26T01:40:43.632Z,9.00
2022-12-26T01:43:11.994Z,10.07
2022-12-26T01:45:38.917Z,8.47
2022-12-26T01:48:11.315Z,10.97
2022-12-26T01:50:57.441Z,10.10
2022-12-26T01:53:23.907Z,9.13
2022-12-26T01:55:59.233Z,8.57
2022-12-26T01:58:30.218Z,11.03
2022-12-26T02:00:56.794Z,9.10
2022-12-26T02:03:41.770Z,9.67
2022-12-26T02:06:11.214Z,9.00
2022-12-26T02:08:39.045Z,8.23
2022-12-26T02:11:05.656Z,8.23
2022-12-26T02:13:34.345Z,8.70
2022-12-26T02:16:01.839Z,10.17
2022-12-26T02:18:28.368Z,8.47
2022-12-26T02:20:54.847Z,8.87
2022-12-26T02:23:24.339Z,9.17
2022-12-26T02:26:02.756Z,8.37
2022-12-26T02:28:29.239Z,11.63
2022-12-26T02:30:55.823Z,10.70
2022-12-26T02:33:22.326Z,9.00
2022-12-26T02:35:58.790Z,13.50
2022-12-26T02:38:34.187Z,9.60
2022-12-26T02:41:00.675Z,9.90
2022-12-26T02:43:54.584Z,8.97
2022-12-26T02:46:58.062Z,8.80
2022-12-26T02:50:00.987Z,8.47
2022-12-26T02:52:50.480Z,9.13
2022-12-26T02:55:37.752Z,10.00
2022-12-26T02:58:34.511Z,8.10
2022-12-26T03:01:22.416Z,7.87
2022-12-26T03:04:08.743Z,7.83
2022-12-26T03:06:54.570Z,11.50
2022-12-26T03:09:42.240Z,9.17
2022-12-26T03:12:31.120Z,8.73
2022-12-26T03:14:59.678Z,9.80
2022-12-26T03:17:32.267Z,10.53
2022-12-26T03:20:03.643Z,10.17
2022-12-26T03:22:32.741Z,8.20
2022-12-26T03:25:19.783Z,8.27
2022-12-26T03:27:46.786Z,8.50
2022-12-26T03:30:31.853Z,8.83
2022-12-26T03:32:59.220Z,8.20
2022-12-26T03:35:27.402Z,7.50
2022-12-26T03:37:59.345Z,8.93
2022-12-26T03:40:44.578Z,8.50
2022-12-26T03:43:33.052Z,9.20
2022-12-26T03:46:18.260Z,8.53
2022-12-26T03:49:11.522Z,8.70
2022-12-26T03:52:19.679Z,9.50
2022-12-26T03:55:04.652Z,8.00
2022-12-26T03:57:51.879Z,7.93
2022-12-26T04:00:36.998Z,7.33
2022-12-26T04:03:25.811Z,7.17
2022-12-26T04:06:12.197Z,8.43
2022-12-26T04:09:02.455Z,7.70
2022-12-26T04:11:47.286Z,7.23
2022-12-26T04:14:40.349Z,7.67
2022-12-26T04:17:44.425Z,7.23
2022-12-26T04:20:18.194Z,8.90
2022-12-26T04:23:07.485Z,7.63
2022-12-26T04:25:57.821Z,7.27
2022-12-26T04:28:42.949Z,7.33
2022-12-26T04:31:32.347Z,7.93
2022-12-26T04:34:19.538Z,7.10
2022-12-26T04:37:17.327Z,7.00
2022-12-26T04:40:04.757Z,6.00
2022-12-26T04:42:50.043Z,8.43
2022-12-26T04:45:16.737Z,6.30
2022-12-26T04:48:03.434Z,6.17
2022-12-26T04:50:29.943Z,6.13
2022-12-26T04:52:59.446Z,6.07
2022-12-26T04:55:33.541Z,5.73
2022-12-26T04:58:00.152Z,5.83
2022-12-26T05:00:28.165Z,5.90
2022-12-26T05:03:18.724Z,5.50
2022-12-26T05:06:13.415Z,7.40
2022-12-26T05:09:02.369Z,5.40
2022-12-26T05:11:33.049Z,6.70
2022-12-26T05:14:00.745Z,5.30
2022-12-26T05:16:46.554Z,5.27
2022-12-26T05:19:33.856Z,5.35
2022-12-26T05:22:19.175Z,4.87
2022-12-26T05:25:04.616Z,4.20
2022-12-26T05:27:54.148Z,6.53
2022-12-26T05:30:20.931Z,5.60
2022-12-26T05:33:06.063Z,4.00
2022-12-26T05:35:32.991Z,3.53
2022-12-26T05:37:59.470Z,3.77
2022-12-26T05:40:26.002Z,4.90
2022-12-26T05:42:52.485Z,5.37
2022-12-26T05:45:19.088Z,3.27
2022-12-26T05:47:51.479Z,3.63
2022-12-26T05:50:18.457Z,3.33
2022-12-26T05:52:44.948Z,3.17
2022-12-26T05:55:12.258Z,3.50
2022-12-26T05:57:38.815Z,3.73
2022-12-26T06:00:05.603Z,3.17
2022-12-26T06:02:32.290Z,4.63
2022-12-26T06:04:58.906Z,3.17
2022-12-26T06:07:25.441Z,2.97
2022-12-26T06:09:51.998Z,3.33
2022-12-26T06:12:18.492Z,2.83
2022-12-26T06:14:45.087Z,3.10
2022-12-26T06:17:11.584Z,3.30
2022-12-26T06:19:44.686Z,3.20
2022-12-26T06:22:13.092Z,3.10
2022-12-26T06:24:39.623Z,2.60
2022-12-26T06:27:06.176Z,3.33
2022-12-26T06:29:32.834Z,3.80
2022-12-26T06:31:59.392Z,3.37
2022-12-26T06:34:27.750Z,3.40
2022-12-26T06:36:55.541Z,3.70
2022-12-26T06:39:22.426Z,2.90
2022-12-26T06:41:49.090Z,3.37
2022-12-26T06:44:18.532Z,2.93
2022-12-26T06:46:45.865Z,5.40
2022-12-26T06:49:12.520Z,3.47
2022-12-26T06:51:39.087Z,4.07
2022-12-26T06:54:05.647Z,3.77
2022-12-26T06:56:32.451Z,3.30
2022-12-26T06:59:00.141Z,4.43
2022-12-26T07:01:27.751Z,3.33
2022-12-26T07:03:54.721Z,3.87
2022-12-26T07:06:34.641Z,2.97
2022-12-26T07:09:02.525Z,3.20
2022-12-26T07:11:30.461Z,2.87
2022-12-26T07:13:57.097Z,2.87
2022-12-26T07:16:24.502Z,3.13
2022-12-26T07:18:57.916Z,5.97
2022-12-26T07:21:24.987Z,2.77
2022-12-26T07:23:51.880Z,3.77
2022-12-26T07:26:18.698Z,3.13
2022-12-26T07:28:45.260Z,3.30
2022-12-26T07:31:18.834Z,3.37
2022-12-26T07:33:49.251Z,2.70
2022-12-26T07:36:16.201Z,2.70
2022-12-26T07:38:42.763Z,2.57
2022-12-26T07:41:28.021Z,2.80
2022-12-26T07:43:54.574Z,2.50
2022-12-26T07:46:21.208Z,2.83
2022-12-26T07:48:48.169Z,2.97
2022-12-26T07:51:15.027Z,2.97
2022-12-26T07:53:43.019Z,3.47
2022-12-26T07:56:09.579Z,5.40
2022-12-26T07:58:36.168Z,2.87
2022-12-26T08:01:03.552Z,2.90
2022-12-26T08:03:30.377Z,9.77
2022-12-26T08:05:57.312Z,57.27
2022-12-26T08:08:23.874Z,12.37
2022-12-26T08:10:58.508Z,15.80
2022-12-26T08:13:25.057Z,6.93
2022-12-26T08:15:51.594Z,6.30
2022-12-26T08:18:18.121Z,30.60
2022-12-26T08:20:44.650Z,5.43
2022-12-26T08:23:11.276Z,3.90
2022-12-26T08:25:38.021Z,29.33
2022-12-26T08:28:04.581Z,7.40
2022-12-26T08:30:31.150Z,13.33
2022-12-26T08:32:57.657Z,51.13
2022-12-26T08:35:24.262Z,151.83
2022-12-26T08:37:50.791Z,90.47
2022-12-26T08:40:26.819Z,111.97
2022-12-26T08:43:21.593Z,50.67
2022-12-26T08:45:46.036Z,177.20
2022-12-26T08:48:12.634Z,16.57
2022-12-26T08:50:41.465Z,258.13
2022-12-26T08:53:08.189Z,444.27
2022-12-26T08:55:34.685Z,188.33
2022-12-26T08:58:01.340Z,347.33
2022-12-26T09:00:27.873Z,372.17
2022-12-26T09:02:54.640Z,267.77
2022-12-26T09:05:21.417Z,689.77
2022-12-26T09:07:48.032Z,195.70
2022-12-26T09:10:14.606Z,266.40
2022-12-26T09:12:41.158Z,15.67
2022-12-26T09:15:07.939Z,9.90
2022-12-26T09:17:34.509Z,6.03
2022-12-26T09:20:01.039Z,4.33
2022-12-26T09:22:57.060Z,5.03
2022-12-26T09:25:25.471Z,2.57
2022-12-26T09:27:58.809Z,6.27
2022-12-26T09:30:26.141Z,3.37
2022-12-26T09:32:53.212Z,5.57
2022-12-26T09:35:20.111Z,4.40
2022-12-26T09:37:46.652Z,2.97
2022-12-26T09:40:20.091Z,4.83
2022-12-26T09:42:52.524Z,4.90
2022-12-26T09:45:20.562Z,3.30
2022-12-26T09:47:59.249Z,4.17
2022-12-26T09:50:29.669Z,5.27
2022-12-26T09:52:57.924Z,11.50
2022-12-26T09:55:27.517Z,5.53
2022-12-26T09:57:56.626Z,2.63
2022-12-26T10:00:29.073Z,5.20
2022-12-26T10:02:57.801Z,3.97
2022-12-26T10:05:28.058Z,3.07
2022-12-26T10:08:00.111Z,2.80
2022-12-26T10:10:35.076Z,2.80
2022-12-26T10:13:13.778Z,3.10
2022-12-26T10:15:40.314Z,9.87
2022-12-26T10:18:25.719Z,2.53
2022-12-26T10:21:10.608Z,2.70
2022-12-26T10:23:45.678Z,3.00
2022-12-26T10:26:21.525Z,3.97
2022-12-26T10:29:08.312Z,4.03
2022-12-26T10:31:43.004Z,3.20
2022-12-26T10:34:18.577Z,2.10
2022-12-26T10:36:57.389Z,4.90
2022-12-26T10:39:33.139Z,4.00
2022-12-26T10:42:03.965Z,3.87
2022-12-26T10:44:30.473Z,2.77
2022-12-26T10:47:01.937Z,3.13
2022-12-26T10:49:28.740Z,3.93
2022-12-26T10:51:56.575Z,2.20
2022-12-26T10:54:23.301Z,2.60
2022-12-26T10:56:51.379Z,2.50
2022-12-26T10:59:19.983Z,2.17
2022-12-26T11:01:49.951Z,3.60
2022-12-26T11:07:11.715Z,2.63
2022-12-26T11:09:42.748Z,3.10
2022-12-26T11:12:21.547Z,2.23
2022-12-26T11:14:48.343Z,4.47
2022-12-26T11:17:24.467Z,3.93
2022-12-26T11:20:08.721Z,2.40
2022-12-26T11:22:35.292Z,2.80
2022-12-26T11:25:04.932Z,2.40
2022-12-26T11:27:31.449Z,2.40
2022-12-26T11:30:15.504Z,2.40
2022-12-26T11:32:43.074Z,4.27
2022-12-26T11:35:35.079Z,2.87
2022-12-26T11:38:03.907Z,3.50
2022-12-26T11:40:36.005Z,2.00
2022-12-26T11:43:03.786Z,2.60
2022-12-26T11:45:37.064Z,2.50
2022-12-26T11:48:08.670Z,2.07
2022-12-26T11:50:44.158Z,2.90
2022-12-26T11:53:15.547Z,2.30
2022-12-26T11:55:42.055Z,8.43
2022-12-26T11:58:08.602Z,2.53
2022-12-26T12:00:36.768Z,4.07
2022-12-26T12:03:04.855Z,4.07
2022-12-26T12:05:31.438Z,2.80
2022-12-26T12:08:09.980Z,2.90
2022-12-26T12:10:47.848Z,2.83
2022-12-26T12:13:17.222Z,2.40
2022-12-26T12:15:43.731Z,2.90
2022-12-26T12:18:13.040Z,3.00
2022-12-26T12:21:08.730Z,2.67
2022-12-26T12:23:54.001Z,3.20
2022-12-26T12:26:20.470Z,1.80
2022-12-26T12:28:46.961Z,2.67
2022-12-26T12:31:19.134Z,1.70
2022-12-26T12:33:57.094Z,1.77
2022-12-26T12:36:36.834Z,1.83
2022-12-26T12:39:17.460Z,2.40
2022-12-26T12:41:49.834Z,2.13
2022-12-26T12:44:21.256Z,2.70
2022-12-26T12:47:14.064Z,2.27
2022-12-26T12:49:40.552Z,2.80
2022-12-26T12:52:09.870Z,2.83
2022-12-26T12:54:59.602Z,2.50
2022-12-26T12:57:38.278Z,2.23
2022-12-26T13:00:24.279Z,2.40
2022-12-26T13:02:58.612Z,3.20
2022-12-26T13:05:54.322Z,3.40
2022-12-26T13:08:29.185Z,6.13
2022-12-26T13:11:05.300Z,3.00
2022-12-26T13:13:32.968Z,3.70
2022-12-26T13:16:11.637Z,3.30
2022-12-26T13:18:40.571Z,2.83
2022-12-26T13:21:09.267Z,3.00
2022-12-26T13:23:54.229Z,4.03
2022-12-26T13:26:22.145Z,3.03
2022-12-26T13:28:52.903Z,2.50
2022-12-26T13:31:20.314Z,3.10
2022-12-26T13:33:46.931Z,2.83
2022-12-26T13:36:33.392Z,2.67
2022-12-26T13:39:01.364Z,2.90
2022-12-26T13:41:47.121Z,3.07
2022-12-26T13:44:19.980Z,3.13
2022-12-26T13:46:46.499Z,3.17
2022-12-26T13:49:35.956Z,2.30
2022-12-26T13:52:05.601Z,2.20
2022-12-26T13:54:32.345Z,2.50
2022-12-26T13:57:10.384Z,1.90
2022-12-26T13:59:39.984Z,1.90
2022-12-26T14:02:19.904Z,2.23
2022-12-26T14:05:05.384Z,1.70
2022-12-26T14:07:41.123Z,2.00
2022-12-26T14:10:19.926Z,2.55
2022-12-26T14:13:04.997Z,1.90
2022-12-26T14:15:43.479Z,2.30
2022-12-26T14:18:28.557Z,1.63
2022-12-26T14:20:58.068Z,1.67
2022-12-26T14:23:56.863Z,1.70
2022-12-26T14:26:39.879Z,1.73
2022-12-26T14:29:13.107Z,2.47
2022-12-26T14:31:42.755Z,2.10
2022-12-26T14:34:27.510Z,1.90
2022-12-26T14:37:01.819Z,2.47
2022-12-26T14:39:28.410Z,3.10
2022-12-26T14:42:25.960Z,1.70
2022-12-26T14:44:52.624Z,1.70
2022-12-26T14:47:39.457Z,2.70
2022-12-26T14:50:24.589Z,1.67
2022-12-26T14:52:51.272Z,1.60
2022-12-26T14:55:38.017Z,1.90
2022-12-26T14:58:33.998Z,2.40
2022-12-26T15:01:09.935Z,1.60
2022-12-26T15:03:55.157Z,2.10
2022-12-26T15:06:21.678Z,1.90
2022-12-26T15:08:57.588Z,2.80
2022-12-26T15:11:30.127Z,2.80
2022-12-26T15:13:56.664Z,2.13
2022-12-26T15:16:33.050Z,1.73
2022-12-26T15:19:18.507Z,1.77
2022-12-26T15:22:11.307Z,2.40
2022-12-26T15:25:18.072Z,2.77
2022-12-26T15:27:42.630Z,2.80
2022-12-26T15:30:11.998Z,1.97
2022-12-26T15:32:46.557Z,2.00
2022-12-26T15:35:21.840Z,1.87
2022-12-26T15:37:54.189Z,1.80
2022-12-26T15:40:22.933Z,1.57
2022-12-26T15:43:00.916Z,2.40
2022-12-26T15:45:46.258Z,1.77
2022-12-26T15:48:31.418Z,3.47
2022-12-26T15:51:11.520Z,1.80
2022-12-26T15:53:56.677Z,1.87
2022-12-26T15:56:32.141Z,2.47
2022-12-26T15:59:05.787Z,1.70
2022-12-26T16:01:46.116Z,3.00
2022-12-26T16:04:15.379Z,3.07
2022-12-26T16:06:50.849Z,1.50
2022-12-26T16:09:20.181Z,1.60
2022-12-26T16:11:47.863Z,3.33
2022-12-26T16:14:24.618Z,1.40
2022-12-26T16:16:51.227Z,4.43
2022-12-26T16:19:19.593Z,4.93
2022-12-26T16:22:06.273Z,6.60
2022-12-26T16:24:34.008Z,3.10
2022-12-26T16:27:02.601Z,2.23
2022-12-26T16:29:29.730Z,3.93
2022-12-26T16:32:06.661Z,2.07
2022-12-26T16:34:34.740Z,1.57
2022-12-26T16:37:01.819Z,2.83
2022-12-26T16:39:28.433Z,1.10
2022-12-26T16:42:03.369Z,3.07
2022-12-26T16:44:31.809Z,2.33
2022-12-26T16:47:05.946Z,1.50
2022-12-26T16:49:33.015Z,1.40
2022-12-26T16:51:59.665Z,1.20
2022-12-26T16:54:28.263Z,1.73
2022-12-26T16:57:03.088Z,2.43
2022-12-26T16:59:36.119Z,1.67
2022-12-26T17:02:03.109Z,2.40
2022-12-26T17:04:30.317Z,2.67
2022-12-26T17:07:07.113Z,1.53
2022-12-26T17:09:43.477Z,1.53
2022-12-26T17:12:19.137Z,1.80
2022-12-26T17:14:46.969Z,1.37
2022-12-26T17:17:26.390Z,9.00
2022-12-26T17:19:54.711Z,2.17
2022-12-26T17:22:30.751Z,4.67
2022-12-26T17:25:15.743Z,2.03
2022-12-26T17:27:42.234Z,1.60
2022-12-26T17:30:28.191Z,1.50
2022-12-26T17:32:54.988Z,2.07
2022-12-26T17:35:28.552Z,2.07
2022-12-26T17:37:57.049Z,2.57
2022-12-26T17:40:28.628Z,3.07
2022-12-26T17:42:56.388Z,1.63
2022-12-26T17:45:26.844Z,1.27
2022-12-26T17:47:54.193Z,1.40
2022-12-26T17:50:21.756Z,2.50
2022-12-26T17:52:48.503Z,2.00
2022-12-26T17:55:21.127Z,2.17
2022-12-26T17:57:47.717Z,2.57
2022-12-26T18:00:15.463Z,3.17
2022-12-26T18:02:42.091Z,3.90
2022-12-26T18:05:08.831Z,5.33
2022-12-26T18:07:35.442Z,2.50
2022-12-26T18:10:02.405Z,3.70
2022-12-26T18:12:29.293Z,2.77
2022-12-26T18:15:01.392Z,2.20
2022-12-26T18:17:29.212Z,2.10
2022-12-26T18:19:57.715Z,2.00
2022-12-26T18:22:24.413Z,1.57
2022-12-26T18:24:50.987Z,2.27
2022-12-26T18:27:18.948Z,2.13
2022-12-26T18:29:45.604Z,1.40
2022-12-26T18:32:21.503Z,1.60
2022-12-26T18:34:48.166Z,2.90
2022-12-26T18:37:14.787Z,1.80
2022-12-26T18:39:41.454Z,2.00
2022-12-26T18:42:11.401Z,2.50
2022-12-26T18:44:38.224Z,2.90
2022-12-26T18:47:04.820Z,1.90
2022-12-26T18:49:31.400Z,1.90
2022-12-26T18:51:57.924Z,2.47
2022-12-26T18:54:24.548Z,3.07
2022-12-26T18:56:51.080Z,2.20
2022-12-26T18:59:17.620Z,2.20
2022-12-26T19:01:44.319Z,2.00
2022-12-26T19:04:13.485Z,2.53
2022-12-26T19:06:40.076Z,2.50
2022-12-26T19:09:06.935Z,4.80
2022-12-26T19:11:33.722Z,4.00
2022-12-26T19:14:00.966Z,5.20
2022-12-26T19:16:27.494Z,3.37
2022-12-26T19:18:54.103Z,4.33
2022-12-26T19:21:20.730Z,5.90
2022-12-26T19:23:47.794Z,5.03
2022-12-26T19:26:16.285Z,14.03
2022-12-26T19:28:42.803Z,9.43
2022-12-26T19:31:10.412Z,7.30
2022-12-26T19:33:37.449Z,5.00
2022-12-26T19:36:04.609Z,3.17
2022-12-26T19:38:31.109Z,2.83
2022-12-26T19:41:05.347Z,3.13
2022-12-26T19:43:31.985Z,3.43
2022-12-26T19:46:02.367Z,3.13
2022-12-26T19:48:30.341Z,3.90
2022-12-26T19:51:00.412Z,6.77
2022-12-26T19:53:27.052Z,8.63
2022-12-26T19:55:53.588Z,8.23
2022-12-26T19:58:20.209Z,4.90
2022-12-26T20:00:46.810Z,3.53
2022-12-26T20:03:13.416Z,1.80
2022-12-26T20:05:42.283Z,1.97
2022-12-26T20:08:09.579Z,2.50
2022-12-26T20:10:36.271Z,2.07
2022-12-26T20:13:03.428Z,2.90
2022-12-26T20:15:30.034Z,4.97
2022-12-26T20:17:57.463Z,3.87
2022-12-26T20:20:24.097Z,2.50
2022-12-26T20:22:53.180Z,2.77
2022-12-26T20:25:19.949Z,2.47
2022-12-26T20:27:46.515Z,3.50
2022-12-26T20:30:13.089Z,2.90
2022-12-26T20:32:44.001Z,2.40
2022-12-26T20:35:10.590Z,3.67
2022-12-26T20:37:37.208Z,5.37
2022-12-26T20:40:04.019Z,4.57
2022-12-26T20:42:30.543Z,9.67
2022-12-26T20:44:57.120Z,2.20
2022-12-26T20:47:23.647Z,2.33
2022-12-26T20:49:50.183Z,2.70
2022-12-26T20:52:18.494Z,4.63
2022-12-26T20:54:45.080Z,2.30
2022-12-26T20:57:11.603Z,1.80
2022-12-26T20:59:38.207Z,1.93
2022-12-26T21:02:04.893Z,1.50
2022-12-26T21:04:33.183Z,1.73
2022-12-26T21:06:59.759Z,2.80
2022-12-26T21:09:26.315Z,1.60
2022-12-26T21:11:52.931Z,2.00
2022-12-26T21:14:21.219Z,5.30
2022-12-26T21:16:51.011Z,7.70
2022-12-26T21:19:17.880Z,4.10
2022-12-26T21:21:45.879Z,3.73
2022-12-26T21:24:17.952Z,2.87
2022-12-26T21:26:45.423Z,2.83
2022-12-26T21:29:13.671Z,2.83
2022-12-26T21:31:40.277Z,2.07
2022-12-26T21:34:06.966Z,2.23
2022-12-26T21:36:35.332Z,4.87
2022-12-26T21:39:05.542Z,7.03
2022-12-26T21:41:32.111Z,2.63
2022-12-26T21:43:58.636Z,2.80
2022-12-26T21:46:25.238Z,2.93
2022-12-26T21:48:51.991Z,3.23
2022-12-26T21:51:19.609Z,5.87
2022-12-26T21:53:46.657Z,2.50
2022-12-26T21:56:14.602Z,2.73
2022-12-26T21:58:59.885Z,2.37
2022-12-26T22:01:27.124Z,1.80
2022-12-26T22:04:12.835Z,2.60
2022-12-26T22:06:39.891Z,2.87
2022-12-26T22:09:07.110Z,2.87
2022-12-26T22:11:52.344Z,1.43
2022-12-26T22:14:18.890Z,3.50
2022-12-26T22:16:45.505Z,1.90
2022-12-26T22:19:12.059Z,2.10
2022-12-26T22:21:38.603Z,1.50
2022-12-26T22:24:05.221Z,2.63
2022-12-26T22:26:31.882Z,3.67
2022-12-26T22:28:58.657Z,1.80
2022-12-26T22:31:26.491Z,1.77
2022-12-26T22:33:57.169Z,1.30
2022-12-26T22:36:24.037Z,1.63
2022-12-26T22:38:50.565Z,2.40
2022-12-26T22:41:17.134Z,2.80
2022-12-26T22:43:43.730Z,3.57
2022-12-26T22:46:10.623Z,2.53
2022-12-26T22:48:37.280Z,2.67
2022-12-26T22:51:05.449Z,3.17
2022-12-26T22:53:32.251Z,2.50
2022-12-26T22:56:01.105Z,3.33
2022-12-26T22:58:28.124Z,1.60
2022-12-26T23:00:54.678Z,3.07
2022-12-26T23:03:21.772Z,2.07
2022-12-26T23:05:48.880Z,1.87
2022-12-26T23:08:26.458Z,2.60
2022-12-26T23:10:56.979Z,3.70
2022-12-26T23:13:24.082Z,1.93
2022-12-26T23:16:01.946Z,2.83
2022-12-26T23:18:53.610Z,1.37
2022-12-26T23:21:41.947Z,4.30
2022-12-26T23:24:11.824Z,2.10
2022-12-26T23:26:38.978Z,1.23
2022-12-26T23:29:24.300Z,0.80
2022-12-26T23:31:50.869Z,4.20
2022-12-26T23:34:17.518Z,2.73
2022-12-26T23:36:44.069Z,2.77
2022-12-26T23:39:10.590Z,1.70
2022-12-26T23:41:37.111Z,2.57
2022-12-26T23:44:03.792Z,3.50
2022-12-26T23:46:30.317Z,1.80
2022-12-26T23:48:56.884Z,3.53
2022-12-26T23:51:23.387Z,2.07
2022-12-26T23:53:49.913Z,3.13
2022-12-26T23:56:16.447Z,2.30
2022-12-26T23:58:42.985Z,2.40
